createdAt,value
2018-04-02T00:01:33.979Z,13.97
2018-04-02T00:04:02.303Z,14.77
2018-04-02T00:06:29.848Z,14.57
2018-04-02T00:08:57.441Z,15.10
2018-04-02T00:11:24.911Z,15.53
2018-04-02T00:13:53.204Z,15.00
2018-04-02T00:16:21.497Z,15.17
2018-04-02T00:18:49.015Z,16.37
2018-04-02T00:21:16.566Z,15.50
2018-04-02T00:23:44.094Z,16.07
2018-04-02T00:26:11.611Z,16.57
2018-04-02T00:28:41.071Z,17.10
2018-04-02T00:31:08.580Z,16.50
2018-04-02T00:33:36.102Z,15.23
2018-04-02T00:36:03.639Z,16.40
2018-04-02T00:38:31.129Z,15.20
2018-04-02T00:40:59.483Z,15.63
2018-04-02T00:43:26.981Z,16.40
2018-04-02T00:45:54.496Z,18.17
2018-04-02T00:48:22.023Z,17.23
2018-04-02T00:50:49.554Z,16.30
2018-04-02T00:53:17.086Z,16.73
2018-04-02T00:55:44.604Z,16.97
2018-04-02T00:58:12.121Z,17.93
2018-04-02T01:00:39.658Z,17.53
2018-04-02T01:03:08.421Z,18.20
2018-04-02T01:05:35.938Z,18.87
2018-04-02T01:08:04.226Z,18.30
2018-04-02T01:10:31.755Z,18.50
2018-04-02T01:13:00.040Z,18.83
2018-04-02T01:15:28.343Z,19.47
2018-04-02T01:17:56.773Z,20.50
2018-04-02T01:20:24.295Z,21.50
2018-04-02T01:22:51.817Z,22.67
2018-04-02T01:25:19.335Z,22.53
2018-04-02T01:27:47.279Z,23.97
2018-04-02T01:30:14.799Z,24.47
2018-04-02T01:32:42.319Z,26.90
2018-04-02T01:35:09.825Z,26.83
2018-04-02T01:37:37.348Z,28.50
2018-04-02T01:40:04.896Z,30.80
2018-04-02T01:42:32.408Z,29.90
2018-04-02T01:44:59.944Z,30.97
2018-04-02T01:47:27.471Z,33.77
2018-04-02T01:49:55.057Z,32.37
2018-04-02T01:52:22.557Z,33.13
2018-04-02T01:54:50.066Z,32.30
2018-04-02T01:57:18.360Z,32.03
2018-04-02T01:59:46.639Z,33.40
2018-04-02T02:02:14.918Z,31.73
2018-04-02T02:04:42.440Z,31.57
2018-04-02T02:07:10.024Z,29.73
2018-04-02T02:09:38.313Z,31.87
2018-04-02T02:12:05.832Z,31.23
2018-04-02T02:14:33.353Z,32.73
2018-04-02T02:17:00.891Z,31.60
2018-04-02T02:19:28.406Z,30.27
2018-04-02T02:21:55.924Z,28.93
2018-04-02T02:24:23.452Z,28.13
2018-04-02T02:26:51.731Z,30.23
2018-04-02T02:29:21.173Z,31.80
2018-04-02T02:31:48.715Z,33.70
2018-04-02T02:34:16.231Z,34.00
2018-04-02T02:36:43.785Z,33.80
2018-04-02T02:39:11.340Z,32.60
2018-04-02T02:41:38.885Z,33.43
2018-04-02T02:44:06.428Z,33.20
2018-04-02T02:46:33.953Z,31.37
2018-04-02T02:49:01.473Z,33.03
2018-04-02T02:51:28.997Z,33.57
2018-04-02T02:53:56.513Z,31.50
2018-04-02T02:56:24.795Z,31.53
2018-04-02T02:58:52.316Z,29.97
2018-04-02T03:01:19.843Z,30.93
2018-04-02T03:03:47.361Z,29.83
2018-04-02T03:06:15.674Z,30.73
2018-04-02T03:08:43.196Z,29.33
2018-04-02T03:11:10.724Z,29.13
2018-04-02T03:13:38.237Z,30.57
2018-04-02T03:16:05.774Z,28.50
2018-04-02T03:18:33.286Z,30.50
2018-04-02T03:21:00.811Z,28.90
2018-04-02T03:23:28.328Z,29.50
2018-04-02T03:25:55.852Z,28.50
2018-04-02T03:28:23.355Z,29.27
2018-04-02T03:30:50.871Z,29.93
2018-04-02T03:33:18.386Z,27.77
2018-04-02T03:35:45.913Z,27.33
2018-04-02T03:38:13.484Z,27.27
2018-04-02T03:40:41.784Z,28.70
2018-04-02T03:43:09.307Z,28.27
2018-04-02T03:45:36.853Z,28.13
2018-04-02T03:48:04.374Z,28.03
2018-04-02T03:50:31.928Z,27.67
2018-04-02T03:52:59.451Z,27.13
2018-04-02T03:55:26.956Z,27.63
2018-04-02T03:57:54.472Z,28.40
2018-04-02T04:00:21.999Z,27.73
2018-04-02T04:02:49.511Z,28.70
2018-04-02T04:05:17.020Z,27.97
2018-04-02T04:07:44.519Z,26.67
2018-04-02T04:10:12.029Z,28.17
2018-04-02T04:12:39.537Z,27.33
2018-04-02T04:15:07.045Z,27.60
2018-04-02T04:17:34.556Z,26.97
2018-04-02T04:20:02.092Z,28.17
2018-04-02T04:22:30.391Z,27.23
2018-04-02T04:24:57.898Z,25.93
2018-04-02T04:27:25.403Z,26.50
2018-04-02T04:29:53.378Z,26.27
2018-04-02T04:32:20.897Z,25.70
2018-04-02T04:34:48.416Z,27.40
2018-04-02T04:37:15.918Z,24.17
2018-04-02T04:39:44.213Z,26.57
2018-04-02T04:42:12.548Z,24.67
2018-04-02T04:44:40.078Z,25.73
2018-04-02T04:47:07.594Z,25.60
2018-04-02T04:49:35.927Z,24.67
2018-04-02T04:52:03.440Z,25.97
2018-04-02T04:54:30.965Z,25.03
2018-04-02T04:56:58.478Z,24.97
2018-04-02T04:59:26.067Z,25.70
2018-04-02T05:01:53.538Z,24.33
2018-04-02T05:04:21.066Z,26.47
2018-04-02T05:06:48.588Z,24.27
2018-04-02T05:09:16.141Z,24.80
2018-04-02T05:11:44.425Z,24.83
2018-04-02T05:14:12.722Z,25.40
2018-04-02T05:16:40.254Z,25.70
2018-04-02T05:19:08.532Z,26.40
2018-04-02T05:21:36.054Z,25.80
2018-04-02T05:24:03.578Z,25.10
2018-04-02T05:26:31.118Z,25.50
2018-04-02T05:28:59.452Z,27.40
2018-04-02T05:31:26.980Z,27.00
2018-04-02T05:33:54.483Z,26.73
2018-04-02T05:36:22.021Z,26.00
2018-04-02T05:38:49.562Z,28.10
2018-04-02T05:41:17.093Z,26.97
2018-04-02T05:43:44.665Z,26.37
2018-04-02T05:46:12.182Z,26.87
2018-04-02T05:48:39.678Z,28.10
2018-04-02T05:51:07.199Z,28.00
2018-04-02T05:53:35.528Z,28.67
2018-04-02T05:56:03.046Z,28.23
2018-04-02T05:58:31.351Z,28.97
2018-04-02T06:00:58.928Z,29.93
2018-04-02T06:03:27.407Z,31.23
2018-04-02T06:05:54.920Z,30.33
2018-04-02T06:08:23.213Z,28.00
2018-04-02T06:10:50.724Z,27.83
2018-04-02T06:13:18.243Z,30.13
2018-04-02T06:15:45.772Z,27.87
2018-04-02T06:18:13.287Z,28.63
2018-04-02T06:20:40.832Z,26.47
2018-04-02T06:23:08.348Z,27.23
2018-04-02T06:25:35.879Z,27.67
2018-04-02T06:28:03.432Z,27.67
2018-04-02T06:30:30.959Z,28.93
2018-04-02T06:32:58.524Z,28.47
2018-04-02T06:35:26.031Z,27.83
2018-04-02T06:37:53.545Z,27.33
2018-04-02T06:40:21.048Z,27.50
2018-04-02T06:42:49.319Z,26.93
2018-04-02T06:45:17.591Z,27.53
2018-04-02T06:47:45.113Z,26.70
2018-04-02T06:50:12.635Z,26.37
2018-04-02T06:52:40.229Z,25.87
2018-04-02T06:55:07.762Z,25.93
2018-04-02T06:57:35.300Z,26.03
2018-04-02T07:00:03.826Z,25.57
2018-04-02T07:02:31.342Z,25.93
2018-04-02T07:04:59.603Z,25.03
2018-04-02T07:07:27.883Z,25.73
2018-04-02T07:09:56.169Z,23.97
2018-04-02T07:12:24.488Z,24.57
2018-04-02T07:14:52.015Z,25.13
2018-04-02T07:17:19.578Z,24.70
2018-04-02T07:19:47.059Z,22.80
2018-04-02T07:22:15.508Z,23.07
2018-04-02T07:24:44.335Z,20.97
2018-04-02T07:27:11.847Z,22.67
2018-04-02T07:29:39.380Z,21.17
2018-04-02T07:32:06.893Z,21.20
2018-04-02T07:34:34.412Z,21.50
2018-04-02T07:37:03.331Z,21.80
2018-04-02T07:39:32.158Z,22.00
2018-04-02T07:41:59.659Z,20.53
2018-04-02T07:44:27.162Z,20.70
2018-04-02T07:46:55.430Z,19.27
2018-04-02T07:49:23.831Z,17.10
2018-04-02T07:51:51.354Z,15.00
2018-04-02T07:54:18.877Z,13.60
2018-04-02T07:56:47.181Z,13.37
2018-04-02T07:59:14.707Z,14.23
2018-04-02T08:01:42.223Z,13.83
2018-04-02T08:04:09.763Z,15.57
2018-04-02T08:06:37.281Z,12.53
2018-04-02T08:09:04.816Z,13.30
2018-04-02T08:11:32.366Z,14.67
2018-04-02T08:13:59.894Z,14.50
2018-04-02T08:16:27.399Z,21.77
2018-04-02T08:18:55.109Z,11.77
2018-04-02T08:21:22.664Z,10.10
2018-04-02T08:23:50.144Z,9.70
2018-04-02T08:26:17.660Z,9.63
2018-04-02T08:28:45.930Z,8.67
2018-04-02T08:31:14.206Z,9.83
2018-04-02T08:33:42.478Z,9.67
2018-04-02T08:36:10.773Z,10.07
2018-04-02T08:38:39.135Z,10.47
2018-04-02T08:41:06.592Z,9.67
2018-04-02T08:43:34.884Z,7.67
2018-04-02T08:46:02.443Z,8.77
2018-04-02T08:48:31.364Z,9.97
2018-04-02T08:50:58.916Z,9.10
2018-04-02T08:53:26.438Z,8.83
2018-04-02T08:55:55.726Z,8.73
2018-04-02T08:58:23.241Z,9.27
2018-04-02T09:00:50.772Z,9.63
2018-04-02T09:03:19.046Z,7.93
2018-04-02T09:05:46.552Z,9.10
2018-04-02T09:08:14.093Z,9.53
2018-04-02T09:10:41.620Z,7.77
2018-04-02T09:13:09.195Z,8.37
2018-04-02T09:15:36.754Z,7.50
2018-04-02T09:18:04.261Z,6.33
2018-04-02T09:20:31.774Z,6.60
2018-04-02T09:22:59.284Z,7.20
2018-04-02T09:25:26.791Z,7.23
2018-04-02T09:27:54.307Z,8.07
2018-04-02T09:30:22.566Z,6.63
2018-04-02T09:32:50.066Z,7.30
2018-04-02T09:35:17.594Z,6.57
2018-04-02T09:37:45.098Z,6.70
2018-04-02T09:40:13.894Z,5.00
2018-04-02T09:42:42.192Z,6.17
2018-04-02T09:45:11.218Z,5.97
2018-04-02T09:47:39.528Z,6.67
2018-04-02T09:50:07.637Z,6.20
2018-04-02T09:52:35.151Z,5.43
2018-04-02T09:55:03.377Z,6.53
2018-04-02T09:57:30.887Z,6.50
2018-04-02T09:59:58.390Z,6.70
2018-04-02T10:02:25.908Z,6.90
2018-04-02T10:04:56.035Z,6.50
2018-04-02T10:07:23.474Z,6.00
2018-04-02T10:09:51.036Z,6.00
2018-04-02T10:12:19.267Z,6.77
2018-04-02T10:14:47.548Z,6.43
2018-04-02T10:17:15.859Z,7.30
2018-04-02T10:19:43.424Z,6.70
2018-04-02T10:22:10.932Z,6.80
2018-04-02T10:24:38.504Z,6.70
2018-04-02T10:27:06.013Z,7.30
2018-04-02T10:29:33.552Z,7.13
2018-04-02T10:32:01.074Z,7.40
2018-04-02T10:34:28.628Z,7.47
2018-04-02T10:36:56.118Z,6.80
2018-04-02T10:39:24.244Z,7.60
2018-04-02T10:41:51.773Z,7.63
2018-04-02T10:44:19.294Z,8.30
2018-04-02T10:46:48.466Z,9.27
2018-04-02T10:49:16.010Z,8.80
2018-04-02T10:51:44.340Z,9.73
2018-04-02T10:54:11.881Z,10.20
2018-04-02T10:56:39.444Z,10.37
2018-04-02T10:59:06.991Z,10.90
2018-04-02T11:01:35.304Z,11.27
2018-04-02T11:04:02.830Z,12.53
2018-04-02T11:06:31.611Z,12.03
2018-04-02T11:08:59.151Z,12.30
2018-04-02T11:11:26.671Z,12.33
2018-04-02T11:13:54.195Z,11.70
2018-04-02T11:16:22.476Z,12.57
2018-04-02T11:18:50.002Z,12.77
2018-04-02T11:21:17.531Z,13.60
2018-04-02T11:23:45.090Z,12.63
2018-04-02T11:26:13.664Z,13.47
2018-04-02T11:28:41.177Z,12.87
2018-04-02T11:31:08.721Z,13.77
2018-04-02T11:33:36.262Z,13.27
2018-04-02T11:36:03.778Z,11.90
2018-04-02T11:38:31.359Z,11.20
2018-04-02T11:40:59.005Z,11.17
2018-04-02T11:43:27.461Z,12.10
2018-04-02T11:45:55.004Z,11.60
2018-04-02T11:48:22.527Z,11.97
2018-04-02T11:50:50.072Z,11.43
2018-04-02T11:53:18.140Z,12.30
2018-04-02T11:55:45.674Z,11.87
2018-04-02T11:58:13.221Z,12.27
2018-04-02T12:00:42.329Z,13.43
2018-04-02T12:03:10.638Z,12.67
2018-04-02T12:05:38.155Z,13.10
2018-04-02T12:08:06.468Z,13.73
2018-04-02T12:10:33.984Z,13.70
2018-04-02T12:13:02.334Z,14.77
2018-04-02T12:15:30.642Z,14.50
2018-04-02T12:17:58.183Z,14.27
2018-04-02T12:20:26.085Z,15.50
2018-04-02T12:22:53.634Z,14.87
2018-04-02T12:25:21.169Z,16.10
2018-04-02T12:27:48.718Z,15.93
2018-04-02T12:30:16.226Z,15.63
2018-04-02T12:32:43.745Z,16.23
2018-04-02T12:35:11.267Z,15.93
2018-04-02T12:37:38.786Z,16.20
2018-04-02T12:40:06.299Z,16.67
2018-04-02T12:42:33.823Z,17.80
2018-04-02T12:45:01.344Z,18.77
2018-04-02T12:47:28.910Z,20.10
2018-04-02T12:49:57.202Z,19.70
2018-04-02T12:52:25.492Z,18.40
2018-04-02T12:54:53.915Z,19.77
2018-04-02T12:57:21.446Z,19.63
2018-04-02T12:59:49.014Z,19.63
2018-04-02T13:02:16.612Z,20.53
2018-04-02T13:04:44.149Z,21.53
2018-04-02T13:07:12.012Z,22.33
2018-04-02T13:09:41.273Z,22.13
2018-04-02T13:12:08.819Z,22.47
2018-04-02T13:14:37.086Z,23.73
2018-04-02T13:17:05.362Z,23.73
2018-04-02T13:19:33.652Z,24.40
2018-04-02T13:22:01.487Z,23.60
2018-04-02T13:24:29.027Z,23.23
2018-04-02T13:26:56.628Z,22.57
2018-04-02T13:29:24.910Z,22.70
2018-04-02T13:31:52.462Z,22.77
2018-04-02T13:34:20.041Z,22.90
2018-04-02T13:36:47.577Z,22.00
2018-04-02T13:39:15.149Z,21.77
2018-04-02T13:41:44.112Z,21.77
2018-04-02T13:44:12.395Z,22.07
2018-04-02T13:46:40.672Z,20.17
2018-04-02T13:49:08.230Z,21.43
2018-04-02T13:51:36.504Z,21.30
2018-04-02T13:54:04.816Z,20.77
2018-04-02T13:56:32.338Z,20.63
2018-04-02T13:58:59.893Z,21.20
2018-04-02T14:01:28.176Z,22.47
2018-04-02T14:03:56.468Z,21.47
2018-04-02T14:06:23.970Z,22.73
2018-04-02T14:08:51.466Z,21.83
2018-04-02T14:11:18.992Z,21.40
2018-04-02T14:13:46.491Z,22.87
2018-04-02T14:16:14.765Z,22.30
2018-04-02T14:18:43.063Z,21.30
2018-04-02T14:21:10.583Z,24.23
2018-04-02T14:23:38.910Z,22.87
2018-04-02T14:26:06.435Z,23.27
2018-04-02T14:28:34.738Z,23.47
2018-04-02T14:31:02.267Z,23.77
2018-04-02T14:33:30.055Z,24.57
2018-04-02T14:35:57.560Z,25.87
2018-04-02T14:38:25.104Z,25.67
2018-04-02T14:40:52.688Z,26.27
2018-04-02T14:43:20.206Z,30.37
2018-04-02T14:45:47.731Z,28.50
2018-04-02T14:48:16.044Z,30.83
2018-04-02T14:50:44.470Z,32.53
2018-04-02T14:53:13.824Z,33.27
2018-04-02T14:55:41.341Z,34.13
2018-04-02T14:58:09.627Z,35.07
2018-04-02T15:00:37.567Z,33.67
2018-04-02T15:03:05.080Z,36.63
2018-04-02T15:05:32.603Z,37.37
2018-04-02T15:08:00.142Z,39.07
2018-04-02T15:10:27.652Z,43.53
2018-04-02T15:12:55.201Z,42.80
2018-04-02T15:15:22.758Z,43.83
2018-04-02T15:17:50.790Z,42.63
2018-04-02T15:20:18.311Z,40.60
2018-04-02T15:22:46.998Z,41.17
2018-04-02T15:25:14.534Z,39.67
2018-04-02T15:27:42.064Z,39.57
2018-04-02T15:30:10.339Z,39.53
2018-04-02T15:32:38.621Z,40.37
2018-04-02T15:35:06.966Z,39.97
2018-04-02T15:37:35.401Z,40.07
2018-04-02T15:40:02.968Z,40.97
2018-04-02T15:42:31.372Z,40.50
2018-04-02T15:44:58.977Z,39.87
2018-04-02T15:47:27.898Z,38.90
2018-04-02T15:49:55.444Z,37.17
2018-04-02T15:52:22.965Z,38.90
2018-04-02T15:54:51.260Z,37.53
2018-04-02T15:57:19.539Z,39.17
2018-04-02T15:59:47.840Z,39.30
2018-04-02T16:02:15.360Z,39.43
2018-04-02T16:04:43.656Z,39.90
2018-04-02T16:07:11.183Z,41.27
2018-04-02T16:09:39.645Z,42.63
2018-04-02T16:12:07.185Z,42.43
2018-04-02T16:14:34.741Z,41.70
2018-04-02T16:17:02.331Z,41.87
2018-04-02T16:19:29.860Z,40.97
2018-04-02T16:21:58.027Z,43.43
2018-04-02T16:24:25.564Z,42.57
2018-04-02T16:26:53.130Z,42.90
2018-04-02T16:29:20.686Z,44.23
2018-04-02T16:31:48.233Z,42.83
2018-04-02T16:34:15.914Z,42.70
2018-04-02T16:36:43.462Z,42.90
2018-04-02T16:39:11.057Z,43.60
2018-04-02T16:41:38.596Z,42.97
2018-04-02T16:44:06.131Z,43.87
2018-04-02T16:46:34.429Z,43.73
2018-04-02T16:49:01.951Z,43.83
2018-04-02T16:51:30.377Z,42.07
2018-04-02T16:53:57.949Z,42.20
2018-04-02T16:56:26.260Z,42.57
2018-04-02T16:58:54.558Z,42.63
2018-04-02T17:01:22.084Z,42.93
2018-04-02T17:03:50.416Z,42.20
2018-04-02T17:06:17.988Z,41.50
2018-04-02T17:08:45.518Z,43.03
2018-04-02T17:11:13.065Z,41.07
2018-04-02T17:13:41.375Z,41.90
2018-04-02T17:16:09.104Z,40.97
2018-04-02T17:18:36.793Z,40.47
2018-04-02T17:21:04.436Z,41.43
2018-04-02T17:23:31.973Z,40.20
2018-04-02T17:26:01.111Z,41.53
2018-04-02T17:28:28.713Z,41.73
2018-04-02T17:30:56.278Z,43.30
2018-04-02T17:33:23.824Z,40.30
2018-04-02T17:35:52.887Z,41.57
2018-04-02T17:38:20.394Z,45.23
2018-04-02T17:40:49.023Z,41.63
2018-04-02T17:43:16.573Z,40.47
2018-04-02T17:45:44.159Z,39.40
2018-04-02T17:48:11.702Z,40.83
2018-04-02T17:50:39.234Z,42.47
2018-04-02T17:53:06.779Z,38.47
2018-04-02T17:55:34.552Z,39.43
2018-04-02T17:58:02.877Z,40.63
2018-04-02T18:00:30.411Z,40.07
2018-04-02T18:02:58.124Z,38.73
2018-04-02T18:05:26.621Z,38.90
2018-04-02T18:07:54.944Z,39.03
2018-04-02T18:10:23.624Z,38.07
2018-04-02T18:12:51.160Z,38.10
2018-04-02T18:15:18.855Z,38.53
2018-04-02T18:17:47.015Z,39.57
2018-04-02T18:20:14.545Z,38.97
2018-04-02T18:22:42.075Z,38.73
2018-04-02T18:25:09.674Z,39.20
2018-04-02T18:27:37.432Z,37.37
2018-04-02T18:30:05.061Z,38.23
2018-04-02T18:32:33.247Z,39.23
2018-04-02T18:35:01.611Z,39.07
2018-04-02T18:37:29.286Z,37.87
2018-04-02T18:39:58.160Z,36.77
2018-04-02T18:42:27.305Z,37.93
2018-04-02T18:44:54.950Z,37.93
2018-04-02T18:47:23.384Z,36.83
2018-04-02T18:49:52.180Z,37.23
2018-04-02T18:52:19.885Z,36.70
2018-04-02T18:54:48.177Z,37.43
2018-04-02T18:57:15.756Z,36.30
2018-04-02T18:59:43.382Z,34.97
2018-04-02T19:02:11.012Z,34.13
2018-04-02T19:04:38.953Z,34.83
2018-04-02T19:07:06.666Z,34.53
2018-04-02T19:09:34.488Z,33.30
2018-04-02T19:12:02.058Z,33.37
2018-04-02T19:14:29.884Z,34.10
2018-04-02T19:16:57.507Z,34.50
2018-04-02T19:19:25.968Z,32.70
2018-04-02T19:21:53.728Z,34.37
2018-04-02T19:24:21.374Z,33.33
2018-04-02T19:26:49.039Z,31.57
2018-04-02T19:29:17.505Z,32.87
2018-04-02T19:31:45.140Z,32.00
2018-04-02T19:34:13.294Z,31.67
2018-04-02T19:36:42.591Z,29.83
2018-04-02T19:39:10.235Z,30.07
2018-04-02T19:41:37.921Z,29.67
2018-04-02T19:44:05.605Z,30.03
2018-04-02T19:46:33.255Z,29.60
2018-04-02T19:49:02.206Z,29.77
2018-04-02T19:51:31.049Z,30.60
2018-04-02T19:53:58.665Z,30.87
2018-04-02T19:56:27.007Z,29.83
2018-04-02T19:58:54.573Z,30.23
2018-04-02T20:01:23.687Z,29.00
2018-04-02T20:03:52.152Z,27.50
2018-04-02T20:06:19.755Z,29.10
2018-04-02T20:08:47.333Z,29.50
2018-04-02T20:11:14.902Z,29.20
2018-04-02T20:13:42.499Z,28.20
2018-04-02T20:16:10.068Z,28.70
2018-04-02T20:18:39.158Z,27.77
2018-04-02T20:21:07.092Z,28.07
2018-04-02T20:23:34.641Z,26.13
2018-04-02T20:26:02.239Z,26.60
2018-04-02T20:28:29.802Z,26.23
2018-04-02T20:30:57.420Z,27.20
2018-04-02T20:33:24.995Z,26.93
2018-04-02T20:35:53.159Z,26.60
2018-04-02T20:38:20.714Z,24.23
2018-04-02T20:40:48.274Z,26.17
2018-04-02T20:43:15.800Z,24.70
2018-04-02T20:45:43.348Z,24.27
2018-04-02T20:48:11.666Z,24.93
2018-04-02T20:50:41.270Z,24.87
2018-04-02T20:53:10.526Z,24.47
2018-04-02T20:55:39.062Z,25.50
2018-04-02T20:58:06.822Z,31.43
2018-04-02T21:00:35.253Z,27.27
2018-04-02T21:03:02.812Z,24.47
2018-04-02T21:05:31.202Z,24.23
2018-04-02T21:07:58.865Z,25.03
2018-04-02T21:10:27.231Z,24.17
2018-04-02T21:12:55.627Z,23.30
2018-04-02T21:15:23.892Z,24.77
2018-04-02T21:17:52.585Z,23.47
2018-04-02T21:20:20.240Z,23.10
2018-04-02T21:22:48.551Z,23.13
2018-04-02T21:25:16.110Z,22.23
2018-04-02T21:27:43.672Z,21.87
2018-04-02T21:30:11.696Z,21.60
2018-04-02T21:32:39.266Z,22.57
2018-04-02T21:35:06.843Z,21.93
2018-04-02T21:37:34.373Z,22.33
2018-04-02T21:40:01.939Z,21.07
2018-04-02T21:42:29.811Z,21.60
2018-04-02T21:44:58.649Z,22.37
2018-04-02T21:47:26.246Z,20.53
2018-04-02T21:49:53.771Z,21.30
2018-04-02T21:52:21.290Z,21.77
2018-04-02T21:54:48.810Z,20.87
2018-04-02T21:57:16.340Z,21.73
2018-04-02T21:59:43.855Z,20.80
2018-04-02T22:02:12.297Z,20.57
2018-04-02T22:04:39.825Z,21.93
2018-04-02T22:07:07.370Z,20.40
2018-04-02T22:09:34.895Z,21.17
2018-04-02T22:12:03.372Z,21.57
2018-04-02T22:14:31.657Z,21.60
2018-04-02T22:16:59.934Z,21.93
2018-04-02T22:19:28.209Z,21.27
2018-04-02T22:21:56.494Z,20.63
2018-04-02T22:24:24.778Z,22.07
2018-04-02T22:26:53.236Z,20.83
2018-04-02T22:29:21.520Z,20.57
2018-04-02T22:31:49.799Z,21.07
2018-04-02T22:34:18.097Z,20.53
2018-04-02T22:36:45.625Z,21.40
2018-04-02T22:39:13.901Z,20.50
2018-04-02T22:41:42.296Z,22.07
2018-04-02T22:44:10.460Z,21.80
2018-04-02T22:46:38.505Z,20.77
2018-04-02T22:49:06.228Z,21.63
2018-04-02T22:51:33.791Z,20.20
2018-04-02T22:54:01.299Z,20.63
2018-04-02T22:56:31.062Z,21.17
2018-04-02T22:58:58.669Z,22.17
2018-04-02T23:01:26.249Z,20.60
2018-04-02T23:03:54.528Z,19.87
2018-04-02T23:06:22.051Z,19.40
2018-04-02T23:08:49.568Z,21.00
2018-04-02T23:11:17.092Z,18.77
2018-04-02T23:13:45.381Z,19.33
2018-04-02T23:16:12.920Z,20.10
2018-04-02T23:18:41.220Z,19.00
2018-04-02T23:21:08.787Z,19.87
2018-04-02T23:23:36.319Z,19.07
2018-04-02T23:26:04.598Z,18.87
2018-04-02T23:28:32.867Z,18.93
2018-04-02T23:31:01.157Z,19.03
2018-04-02T23:33:29.977Z,18.73
2018-04-02T23:35:57.524Z,19.03
2018-04-02T23:38:25.124Z,18.07
2018-04-02T23:40:52.630Z,17.23
2018-04-02T23:43:21.223Z,16.50
2018-04-02T23:45:49.353Z,16.60
2018-04-02T23:48:16.872Z,17.47
2018-04-02T23:50:44.390Z,16.97
2018-04-02T23:53:11.952Z,16.87
2018-04-02T23:55:40.270Z,17.63
2018-04-02T23:58:07.794Z,15.67
